sensor_id;sensor_type;location;lat;lon;timestamp;P1;durP1;ratioP1;P2;durP2;ratioP2
73337;SDS011;61575;49.908;35.556;2023-02-21T00:02:53;8.95;;;5.38;;
73337;SDS011;61575;49.908;35.556;2023-02-21T00:06:14;9.20;;;5.82;;
73337;SDS011;61575;49.908;35.556;2023-02-21T00:09:34;8.25;;;4.95;;
73337;SDS011;61575;49.908;35.556;2023-02-21T00:12:58;7.75;;;4.80;;
73337;SDS011;61575;49.908;35.556;2023-02-21T00:16:19;7.63;;;4.88;;
73337;SDS011;61575;49.908;35.556;2023-02-21T00:19:39;8.48;;;5.40;;
73337;SDS011;61575;49.908;35.556;2023-02-21T00:23:00;9.70;;;5.03;;
73337;SDS011;61575;49.908;35.556;2023-02-21T00:26:21;8.05;;;4.68;;
73337;SDS011;61575;49.908;35.556;2023-02-21T00:29:42;7.75;;;4.88;;
73337;SDS011;61575;49.908;35.556;2023-02-21T00:33:02;8.07;;;5.28;;
73337;SDS011;61575;49.908;35.556;2023-02-21T00:36:23;8.30;;;5.32;;
73337;SDS011;61575;49.908;35.556;2023-02-21T00:39:44;9.27;;;5.35;;
73337;SDS011;61575;49.908;35.556;2023-02-21T00:43:04;8.10;;;5.20;;
73337;SDS011;61575;49.908;35.556;2023-02-21T00:46:25;8.73;;;5.30;;
73337;SDS011;61575;49.908;35.556;2023-02-21T00:49:45;8.73;;;4.60;;
73337;SDS011;61575;49.908;35.556;2023-02-21T00:53:06;8.05;;;4.40;;
73337;SDS011;61575;49.908;35.556;2023-02-21T00:56:26;7.45;;;4.35;;
73337;SDS011;61575;49.908;35.556;2023-02-21T00:59:47;6.90;;;4.03;;
73337;SDS011;61575;49.908;35.556;2023-02-21T01:03:08;6.30;;;4.10;;
73337;SDS011;61575;49.908;35.556;2023-02-21T01:06:30;7.28;;;4.05;;
73337;SDS011;61575;49.908;35.556;2023-02-21T01:09:50;6.30;;;3.45;;
73337;SDS011;61575;49.908;35.556;2023-02-21T01:13:11;5.03;;;3.47;;
73337;SDS011;61575;49.908;35.556;2023-02-21T01:16:31;5.55;;;3.50;;
73337;SDS011;61575;49.908;35.556;2023-02-21T01:19:54;5.00;;;2.92;;
73337;SDS011;61575;49.908;35.556;2023-02-21T01:23:15;5.25;;;3.35;;
73337;SDS011;61575;49.908;35.556;2023-02-21T01:26:36;5.72;;;3.40;;
73337;SDS011;61575;49.908;35.556;2023-02-21T01:29:57;5.32;;;3.33;;
73337;SDS011;61575;49.908;35.556;2023-02-21T01:33:18;5.28;;;3.50;;
73337;SDS011;61575;49.908;35.556;2023-02-21T01:36:41;6.38;;;3.30;;
73337;SDS011;61575;49.908;35.556;2023-02-21T01:40:01;6.32;;;3.40;;
73337;SDS011;61575;49.908;35.556;2023-02-21T01:43:23;6.50;;;4.13;;
73337;SDS011;61575;49.908;35.556;2023-02-21T01:46:45;5.80;;;3.28;;
73337;SDS011;61575;49.908;35.556;2023-02-21T01:50:08;6.75;;;3.58;;
73337;SDS011;61575;49.908;35.556;2023-02-21T01:53:33;5.32;;;3.55;;
73337;SDS011;61575;49.908;35.556;2023-02-21T01:56:54;5.57;;;3.42;;
73337;SDS011;61575;49.908;35.556;2023-02-21T02:00:18;6.22;;;3.70;;
73337;SDS011;61575;49.908;35.556;2023-02-21T02:03:39;4.90;;;3.05;;
73337;SDS011;61575;49.908;35.556;2023-02-21T02:07:00;5.20;;;3.22;;
73337;SDS011;61575;49.908;35.556;2023-02-21T02:10:22;4.53;;;3.00;;
73337;SDS011;61575;49.908;35.556;2023-02-21T02:37:58;4.70;;;2.95;;
73337;SDS011;61575;49.908;35.556;2023-02-21T02:41:23;4.75;;;2.53;;
73337;SDS011;61575;49.908;35.556;2023-02-21T02:44:40;4.80;;;2.83;;
73337;SDS011;61575;49.908;35.556;2023-02-21T02:47:49;4.25;;;2.67;;
73337;SDS011;61575;49.908;35.556;2023-02-21T02:50:58;4.63;;;2.60;;
73337;SDS011;61575;49.908;35.556;2023-02-21T02:54:03;4.25;;;2.55;;
73337;SDS011;61575;49.908;35.556;2023-02-21T02:57:05;3.85;;;2.35;;
73337;SDS011;61575;49.908;35.556;2023-02-21T03:00:11;3.65;;;2.05;;
73337;SDS011;61575;49.908;35.556;2023-02-21T03:13:12;4.18;;;2.10;;
73337;SDS011;61575;49.908;35.556;2023-02-21T03:16:37;4.40;;;2.42;;
73337;SDS011;61575;49.908;35.556;2023-02-21T03:19:45;3.75;;;2.10;;
73337;SDS011;61575;49.908;35.556;2023-02-21T03:22:49;4.70;;;2.20;;
73337;SDS011;61575;49.908;35.556;2023-02-21T03:25:53;4.32;;;2.42;;
73337;SDS011;61575;49.908;35.556;2023-02-21T03:28:59;3.60;;;2.20;;
73337;SDS011;61575;49.908;35.556;2023-02-21T03:35:14;4.00;;;2.20;;
73337;SDS011;61575;49.908;35.556;2023-02-21T03:38:17;3.92;;;2.35;;
73337;SDS011;61575;49.908;35.556;2023-02-21T03:41:19;3.50;;;2.10;;
73337;SDS011;61575;49.908;35.556;2023-02-21T03:44:21;3.97;;;2.30;;
73337;SDS011;61575;49.908;35.556;2023-02-21T03:47:23;4.35;;;2.53;;
73337;SDS011;61575;49.908;35.556;2023-02-21T03:50:25;5.00;;;2.90;;
73337;SDS011;61575;49.908;35.556;2023-02-21T03:53:28;4.77;;;2.57;;
73337;SDS011;61575;49.908;35.556;2023-02-21T03:56:30;6.00;;;3.30;;
73337;SDS011;61575;49.908;35.556;2023-02-21T03:59:56;5.88;;;3.38;;
73337;SDS011;61575;49.908;35.556;2023-02-21T04:02:58;6.50;;;3.50;;
73337;SDS011;61575;49.908;35.556;2023-02-21T04:06:08;6.07;;;3.30;;
73337;SDS011;61575;49.908;35.556;2023-02-21T04:09:10;5.47;;;3.10;;
73337;SDS011;61575;49.908;35.556;2023-02-21T04:12:12;6.88;;;3.55;;
73337;SDS011;61575;49.908;35.556;2023-02-21T04:15:15;5.78;;;3.80;;
73337;SDS011;61575;49.908;35.556;2023-02-21T04:18:17;6.45;;;3.55;;
73337;SDS011;61575;49.908;35.556;2023-02-21T04:21:21;7.78;;;3.70;;
73337;SDS011;61575;49.908;35.556;2023-02-21T04:24:26;6.68;;;3.72;;
73337;SDS011;61575;49.908;35.556;2023-02-21T04:27:28;6.72;;;3.85;;
73337;SDS011;61575;49.908;35.556;2023-02-21T04:30:31;6.05;;;4.00;;
73337;SDS011;61575;49.908;35.556;2023-02-21T04:33:33;7.40;;;4.47;;
73337;SDS011;61575;49.908;35.556;2023-02-21T04:36:35;6.43;;;4.05;;
73337;SDS011;61575;49.908;35.556;2023-02-21T04:39:39;8.20;;;4.78;;
73337;SDS011;61575;49.908;35.556;2023-02-21T04:42:41;7.65;;;4.55;;
73337;SDS011;61575;49.908;35.556;2023-02-21T04:45:43;8.00;;;4.50;;
73337;SDS011;61575;49.908;35.556;2023-02-21T04:48:45;8.52;;;4.15;;
73337;SDS011;61575;49.908;35.556;2023-02-21T04:51:49;7.57;;;4.70;;
73337;SDS011;61575;49.908;35.556;2023-02-21T04:54:51;10.98;;;4.82;;
73337;SDS011;61575;49.908;35.556;2023-02-21T04:57:53;9.98;;;5.25;;
73337;SDS011;61575;49.908;35.556;2023-02-21T05:00:55;9.50;;;4.88;;
73337;SDS011;61575;49.908;35.556;2023-02-21T05:03:57;8.43;;;4.80;;
73337;SDS011;61575;49.908;35.556;2023-02-21T05:07:00;7.35;;;4.53;;
73337;SDS011;61575;49.908;35.556;2023-02-21T05:10:03;8.00;;;4.72;;
73337;SDS011;61575;49.908;35.556;2023-02-21T05:16:07;8.57;;;4.97;;
73337;SDS011;61575;49.908;35.556;2023-02-21T05:19:09;7.43;;;4.63;;
73337;SDS011;61575;49.908;35.556;2023-02-21T05:22:11;8.50;;;4.63;;
73337;SDS011;61575;49.908;35.556;2023-02-21T05:25:20;8.65;;;4.68;;
73337;SDS011;61575;49.908;35.556;2023-02-21T05:28:24;10.70;;;4.97;;
73337;SDS011;61575;49.908;35.556;2023-02-21T05:31:25;8.48;;;4.50;;
73337;SDS011;61575;49.908;35.556;2023-02-21T05:34:27;9.87;;;4.00;;
73337;SDS011;61575;49.908;35.556;2023-02-21T05:37:29;7.57;;;3.33;;
73337;SDS011;61575;49.908;35.556;2023-02-21T05:40:31;7.30;;;4.20;;
73337;SDS011;61575;49.908;35.556;2023-02-21T05:43:33;7.90;;;4.35;;
73337;SDS011;61575;49.908;35.556;2023-02-21T05:46:35;8.40;;;4.22;;
73337;SDS011;61575;49.908;35.556;2023-02-21T05:49:37;7.20;;;3.55;;
73337;SDS011;61575;49.908;35.556;2023-02-21T05:52:39;8.53;;;3.90;;
73337;SDS011;61575;49.908;35.556;2023-02-21T05:55:41;6.88;;;4.00;;
73337;SDS011;61575;49.908;35.556;2023-02-21T05:58:43;9.45;;;3.38;;
73337;SDS011;61575;49.908;35.556;2023-02-21T06:01:45;7.47;;;3.70;;
73337;SDS011;61575;49.908;35.556;2023-02-21T06:04:48;9.05;;;3.65;;
73337;SDS011;61575;49.908;35.556;2023-02-21T06:07:50;8.43;;;3.55;;
73337;SDS011;61575;49.908;35.556;2023-02-21T06:10:52;7.00;;;3.50;;
73337;SDS011;61575;49.908;35.556;2023-02-21T06:13:55;6.82;;;3.60;;
73337;SDS011;61575;49.908;35.556;2023-02-21T06:16:59;7.18;;;3.30;;
73337;SDS011;61575;49.908;35.556;2023-02-21T06:20:01;8.63;;;3.47;;
73337;SDS011;61575;49.908;35.556;2023-02-21T06:23:04;13.73;;;5.55;;
73337;SDS011;61575;49.908;35.556;2023-02-21T06:26:06;9.32;;;4.10;;
73337;SDS011;61575;49.908;35.556;2023-02-21T06:29:08;6.72;;;3.30;;
73337;SDS011;61575;49.908;35.556;2023-02-21T06:32:10;6.13;;;2.92;;
73337;SDS011;61575;49.908;35.556;2023-02-21T06:35:12;7.97;;;3.10;;
73337;SDS011;61575;49.908;35.556;2023-02-21T06:38:14;7.43;;;3.13;;
73337;SDS011;61575;49.908;35.556;2023-02-21T06:41:17;5.78;;;2.90;;
73337;SDS011;61575;49.908;35.556;2023-02-21T06:44:20;6.15;;;3.05;;
73337;SDS011;61575;49.908;35.556;2023-02-21T06:47:22;5.68;;;2.60;;
73337;SDS011;61575;49.908;35.556;2023-02-21T06:50:24;5.90;;;2.92;;
73337;SDS011;61575;49.908;35.556;2023-02-21T06:53:26;7.28;;;2.80;;
73337;SDS011;61575;49.908;35.556;2023-02-21T06:56:28;5.60;;;2.90;;
73337;SDS011;61575;49.908;35.556;2023-02-21T06:59:30;7.45;;;3.22;;
73337;SDS011;61575;49.908;35.556;2023-02-21T07:02:33;8.55;;;3.33;;
73337;SDS011;61575;49.908;35.556;2023-02-21T07:05:35;7.40;;;3.03;;
73337;SDS011;61575;49.908;35.556;2023-02-21T07:08:39;8.68;;;3.13;;
73337;SDS011;61575;49.908;35.556;2023-02-21T07:11:40;9.07;;;3.13;;
73337;SDS011;61575;49.908;35.556;2023-02-21T07:14:42;6.60;;;3.10;;
73337;SDS011;61575;49.908;35.556;2023-02-21T07:17:44;6.28;;;3.05;;
73337;SDS011;61575;49.908;35.556;2023-02-21T07:20:46;6.13;;;2.78;;
73337;SDS011;61575;49.908;35.556;2023-02-21T07:23:48;6.88;;;3.05;;
73337;SDS011;61575;49.908;35.556;2023-02-21T07:26:50;6.15;;;2.65;;
73337;SDS011;61575;49.908;35.556;2023-02-21T07:29:52;5.75;;;2.60;;
73337;SDS011;61575;49.908;35.556;2023-02-21T07:32:54;5.65;;;2.53;;
73337;SDS011;61575;49.908;35.556;2023-02-21T07:35:56;6.32;;;2.33;;
73337;SDS011;61575;49.908;35.556;2023-02-21T07:38:58;6.18;;;2.60;;
73337;SDS011;61575;49.908;35.556;2023-02-21T07:41:59;7.30;;;2.97;;
73337;SDS011;61575;49.908;35.556;2023-02-21T07:45:03;7.65;;;2.63;;
73337;SDS011;61575;49.908;35.556;2023-02-21T07:48:05;4.28;;;2.10;;
73337;SDS011;61575;49.908;35.556;2023-02-21T07:51:07;7.30;;;2.30;;
73337;SDS011;61575;49.908;35.556;2023-02-21T07:57:34;5.85;;;2.10;;
73337;SDS011;61575;49.908;35.556;2023-02-21T08:00:36;8.18;;;2.40;;
73337;SDS011;61575;49.908;35.556;2023-02-21T08:03:40;7.75;;;2.47;;
73337;SDS011;61575;49.908;35.556;2023-02-21T08:06:42;13.00;;;2.90;;
73337;SDS011;61575;49.908;35.556;2023-02-21T08:12:47;6.43;;;2.03;;
73337;SDS011;61575;49.908;35.556;2023-02-21T08:15:49;6.05;;;1.77;;
73337;SDS011;61575;49.908;35.556;2023-02-21T08:18:51;6.55;;;1.80;;
73337;SDS011;61575;49.908;35.556;2023-02-21T08:21:53;6.32;;;1.85;;
73337;SDS011;61575;49.908;35.556;2023-02-21T08:24:55;4.68;;;1.60;;
73337;SDS011;61575;49.908;35.556;2023-02-21T08:27:57;5.22;;;1.60;;
73337;SDS011;61575;49.908;35.556;2023-02-21T08:30:59;5.28;;;1.20;;
73337;SDS011;61575;49.908;35.556;2023-02-21T08:34:01;6.75;;;1.70;;
73337;SDS011;61575;49.908;35.556;2023-02-21T08:37:03;6.43;;;1.80;;
73337;SDS011;61575;49.908;35.556;2023-02-21T08:40:17;4.60;;;1.50;;
73337;SDS011;61575;49.908;35.556;2023-02-21T08:43:20;7.30;;;2.10;;
73337;SDS011;61575;49.908;35.556;2023-02-21T08:46:22;5.05;;;1.38;;
73337;SDS011;61575;49.908;35.556;2023-02-21T08:49:24;6.10;;;1.80;;
73337;SDS011;61575;49.908;35.556;2023-02-21T08:52:26;7.43;;;1.60;;
73337;SDS011;61575;49.908;35.556;2023-02-21T08:55:28;5.15;;;1.30;;
73337;SDS011;61575;49.908;35.556;2023-02-21T08:58:30;7.35;;;1.83;;
73337;SDS011;61575;49.908;35.556;2023-02-21T09:01:32;9.48;;;1.90;;
73337;SDS011;61575;49.908;35.556;2023-02-21T09:04:35;7.22;;;1.75;;
73337;SDS011;61575;49.908;35.556;2023-02-21T09:07:37;5.38;;;1.50;;
73337;SDS011;61575;49.908;35.556;2023-02-21T09:10:39;8.27;;;1.80;;
73337;SDS011;61575;49.908;35.556;2023-02-21T09:13:48;7.20;;;1.80;;
73337;SDS011;61575;49.908;35.556;2023-02-21T09:16:50;7.10;;;1.80;;
73337;SDS011;61575;49.908;35.556;2023-02-21T09:19:52;7.85;;;1.80;;
73337;SDS011;61575;49.908;35.556;2023-02-21T09:22:54;9.53;;;2.10;;
73337;SDS011;61575;49.908;35.556;2023-02-21T09:25:56;6.53;;;1.50;;
73337;SDS011;61575;49.908;35.556;2023-02-21T09:28:58;6.33;;;1.93;;
73337;SDS011;61575;49.908;35.556;2023-02-21T09:32:00;5.90;;;1.90;;
73337;SDS011;61575;49.908;35.556;2023-02-21T09:38:05;6.38;;;1.70;;
73337;SDS011;61575;49.908;35.556;2023-02-21T09:41:09;6.90;;;2.00;;
73337;SDS011;61575;49.908;35.556;2023-02-21T09:44:22;7.38;;;2.20;;
73337;SDS011;61575;49.908;35.556;2023-02-21T09:47:29;6.90;;;2.15;;
73337;SDS011;61575;49.908;35.556;2023-02-21T09:50:39;8.43;;;2.00;;
73337;SDS011;61575;49.908;35.556;2023-02-21T09:53:45;8.13;;;1.80;;
73337;SDS011;61575;49.908;35.556;2023-02-21T09:56:48;7.57;;;1.90;;
73337;SDS011;61575;49.908;35.556;2023-02-21T09:59:50;7.53;;;2.25;;
73337;SDS011;61575;49.908;35.556;2023-02-21T10:06:31;8.50;;;2.03;;
73337;SDS011;61575;49.908;35.556;2023-02-21T10:12:52;9.30;;;2.20;;
73337;SDS011;61575;49.908;35.556;2023-02-21T10:15:59;8.68;;;1.90;;
73337;SDS011;61575;49.908;35.556;2023-02-21T10:22:35;6.30;;;1.80;;
73337;SDS011;61575;49.908;35.556;2023-02-21T10:25:41;6.72;;;1.80;;
73337;SDS011;61575;49.908;35.556;2023-02-21T10:28:45;9.75;;;2.10;;
73337;SDS011;61575;49.908;35.556;2023-02-21T10:31:47;6.23;;;1.70;;
73337;SDS011;61575;49.908;35.556;2023-02-21T10:34:53;6.15;;;1.70;;
73337;SDS011;61575;49.908;35.556;2023-02-21T10:37:56;10.30;;;1.95;;
73337;SDS011;61575;49.908;35.556;2023-02-21T10:41:01;8.02;;;2.08;;
73337;SDS011;61575;49.908;35.556;2023-02-21T10:44:10;10.10;;;2.03;;
73337;SDS011;61575;49.908;35.556;2023-02-21T10:47:38;8.25;;;2.45;;
73337;SDS011;61575;49.908;35.556;2023-02-21T10:51:11;7.03;;;1.80;;
73337;SDS011;61575;49.908;35.556;2023-02-21T10:54:23;5.60;;;1.65;;
73337;SDS011;61575;49.908;35.556;2023-02-21T10:57:26;8.52;;;2.30;;
73337;SDS011;61575;49.908;35.556;2023-02-21T11:03:35;5.40;;;1.70;;
73337;SDS011;61575;49.908;35.556;2023-02-21T11:06:37;8.45;;;2.00;;
73337;SDS011;61575;49.908;35.556;2023-02-21T11:09:41;9.85;;;1.92;;
73337;SDS011;61575;49.908;35.556;2023-02-21T11:12:44;7.93;;;2.08;;
73337;SDS011;61575;49.908;35.556;2023-02-21T11:16:10;9.02;;;2.00;;
73337;SDS011;61575;49.908;35.556;2023-02-21T11:19:16;6.13;;;1.70;;
73337;SDS011;61575;49.908;35.556;2023-02-21T11:22:20;5.18;;;1.70;;
73337;SDS011;61575;49.908;35.556;2023-02-21T11:28:28;6.70;;;2.13;;
73337;SDS011;61575;49.908;35.556;2023-02-21T11:31:31;8.10;;;1.75;;
73337;SDS011;61575;49.908;35.556;2023-02-21T11:34:33;6.28;;;1.90;;
73337;SDS011;61575;49.908;35.556;2023-02-21T11:37:45;7.25;;;1.42;;
73337;SDS011;61575;49.908;35.556;2023-02-21T11:40:49;6.05;;;1.70;;
73337;SDS011;61575;49.908;35.556;2023-02-21T11:47:16;6.03;;;1.70;;
73337;SDS011;61575;49.908;35.556;2023-02-21T11:50:41;9.13;;;2.03;;
73337;SDS011;61575;49.908;35.556;2023-02-21T11:53:49;8.07;;;2.38;;
73337;SDS011;61575;49.908;35.556;2023-02-21T11:57:00;5.07;;;2.00;;
73337;SDS011;61575;49.908;35.556;2023-02-21T12:07:15;6.32;;;2.13;;
73337;SDS011;61575;49.908;35.556;2023-02-21T12:13:43;6.38;;;1.83;;
73337;SDS011;61575;49.908;35.556;2023-02-21T12:17:08;7.78;;;1.60;;
73337;SDS011;61575;49.908;35.556;2023-02-21T12:47:09;4.82;;;1.38;;
73337;SDS011;61575;49.908;35.556;2023-02-21T12:50:19;7.03;;;1.73;;
73337;SDS011;61575;49.908;35.556;2023-02-21T12:53:25;6.80;;;1.50;;
73337;SDS011;61575;49.908;35.556;2023-02-21T13:00:02;8.80;;;2.53;;
73337;SDS011;61575;49.908;35.556;2023-02-21T13:06:35;7.13;;;1.55;;
73337;SDS011;61575;49.908;35.556;2023-02-21T13:09:44;8.13;;;1.85;;
73337;SDS011;61575;49.908;35.556;2023-02-21T13:15:52;4.97;;;1.70;;
73337;SDS011;61575;49.908;35.556;2023-02-21T13:18:57;6.40;;;1.70;;
73337;SDS011;61575;49.908;35.556;2023-02-21T13:22:10;6.45;;;1.73;;
73337;SDS011;61575;49.908;35.556;2023-02-21T13:29:26;6.32;;;1.52;;
73337;SDS011;61575;49.908;35.556;2023-02-21T13:32:35;7.18;;;1.55;;
73337;SDS011;61575;49.908;35.556;2023-02-21T13:35:39;7.57;;;1.73;;
73337;SDS011;61575;49.908;35.556;2023-02-21T13:38:41;7.03;;;2.05;;
73337;SDS011;61575;49.908;35.556;2023-02-21T13:45:33;7.75;;;1.73;;
73337;SDS011;61575;49.908;35.556;2023-02-21T13:48:26;7.55;;;1.70;;
73337;SDS011;61575;49.908;35.556;2023-02-21T13:51:48;7.43;;;1.75;;
73337;SDS011;61575;49.908;35.556;2023-02-21T14:08:01;8.15;;;1.83;;
73337;SDS011;61575;49.908;35.556;2023-02-21T14:14:24;7.05;;;1.73;;
73337;SDS011;61575;49.908;35.556;2023-02-21T14:17:28;7.10;;;1.60;;
73337;SDS011;61575;49.908;35.556;2023-02-21T14:20:30;8.48;;;1.58;;
73337;SDS011;61575;49.908;35.556;2023-02-21T14:23:40;3.88;;;1.30;;
73337;SDS011;61575;49.908;35.556;2023-02-21T14:26:49;4.50;;;1.15;;
73337;SDS011;61575;49.908;35.556;2023-02-21T14:33:23;5.50;;;1.35;;
73337;SDS011;61575;49.908;35.556;2023-02-21T14:36:25;7.35;;;1.30;;
73337;SDS011;61575;49.908;35.556;2023-02-21T14:39:35;5.88;;;1.38;;
73337;SDS011;61575;49.908;35.556;2023-02-21T14:53:04;6.40;;;1.83;;
73337;SDS011;61575;49.908;35.556;2023-02-21T15:06:29;6.65;;;1.77;;
73337;SDS011;61575;49.908;35.556;2023-02-21T15:09:33;6.55;;;1.70;;
73337;SDS011;61575;49.908;35.556;2023-02-21T15:12:35;7.53;;;1.70;;
73337;SDS011;61575;49.908;35.556;2023-02-21T15:15:45;7.13;;;1.67;;
73337;SDS011;61575;49.908;35.556;2023-02-21T15:18:59;8.00;;;2.10;;
73337;SDS011;61575;49.908;35.556;2023-02-21T15:25:16;5.68;;;1.75;;
73337;SDS011;61575;49.908;35.556;2023-02-21T15:28:23;6.95;;;2.10;;
73337;SDS011;61575;49.908;35.556;2023-02-21T15:31:35;6.75;;;2.28;;
73337;SDS011;61575;49.908;35.556;2023-02-21T15:34:42;5.90;;;1.70;;
73337;SDS011;61575;49.908;35.556;2023-02-21T15:37:47;6.72;;;1.77;;
73337;SDS011;61575;49.908;35.556;2023-02-21T15:40:49;5.55;;;2.25;;
73337;SDS011;61575;49.908;35.556;2023-02-21T15:56:35;11.30;;;2.50;;
73337;SDS011;61575;49.908;35.556;2023-02-21T15:59:37;7.85;;;2.47;;
73337;SDS011;61575;49.908;35.556;2023-02-21T16:02:40;6.97;;;2.53;;
73337;SDS011;61575;49.908;35.556;2023-02-21T16:05:42;8.02;;;2.40;;
73337;SDS011;61575;49.908;35.556;2023-02-21T16:12:17;6.53;;;2.00;;
73337;SDS011;61575;49.908;35.556;2023-02-21T16:15:34;6.38;;;1.70;;
73337;SDS011;61575;49.908;35.556;2023-02-21T16:18:38;4.85;;;1.67;;
73337;SDS011;61575;49.908;35.556;2023-02-21T16:21:41;6.18;;;1.70;;
73337;SDS011;61575;49.908;35.556;2023-02-21T16:24:43;5.43;;;1.80;;
73337;SDS011;61575;49.908;35.556;2023-02-21T16:30:51;4.88;;;1.52;;
73337;SDS011;61575;49.908;35.556;2023-02-21T16:33:53;4.18;;;1.70;;
73337;SDS011;61575;49.908;35.556;2023-02-21T16:37:05;5.55;;;1.77;;
73337;SDS011;61575;49.908;35.556;2023-02-21T16:40:15;8.75;;;1.92;;
73337;SDS011;61575;49.908;35.556;2023-02-21T16:43:24;5.78;;;1.88;;
73337;SDS011;61575;49.908;35.556;2023-02-21T16:46:28;5.25;;;1.80;;
73337;SDS011;61575;49.908;35.556;2023-02-21T16:49:31;6.28;;;2.65;;
73337;SDS011;61575;49.908;35.556;2023-02-21T16:52:33;4.73;;;2.00;;
73337;SDS011;61575;49.908;35.556;2023-02-21T16:55:35;5.30;;;2.20;;
73337;SDS011;61575;49.908;35.556;2023-02-21T16:58:37;6.13;;;2.08;;
73337;SDS011;61575;49.908;35.556;2023-02-21T17:01:42;5.88;;;2.47;;
73337;SDS011;61575;49.908;35.556;2023-02-21T17:04:44;6.97;;;2.17;;
73337;SDS011;61575;49.908;35.556;2023-02-21T17:07:47;10.25;;;3.75;;
73337;SDS011;61575;49.908;35.556;2023-02-21T17:10:50;4.15;;;1.60;;
73337;SDS011;61575;49.908;35.556;2023-02-21T17:13:52;4.53;;;1.83;;
73337;SDS011;61575;49.908;35.556;2023-02-21T17:16:53;6.22;;;1.58;;
73337;SDS011;61575;49.908;35.556;2023-02-21T17:19:58;5.43;;;1.92;;
73337;SDS011;61575;49.908;35.556;2023-02-21T17:22:59;3.83;;;1.88;;
73337;SDS011;61575;49.908;35.556;2023-02-21T17:26:02;4.03;;;1.83;;
73337;SDS011;61575;49.908;35.556;2023-02-21T17:29:05;7.32;;;2.95;;
73337;SDS011;61575;49.908;35.556;2023-02-21T17:35:10;4.30;;;1.67;;
73337;SDS011;61575;49.908;35.556;2023-02-21T17:38:13;5.35;;;1.70;;
73337;SDS011;61575;49.908;35.556;2023-02-21T17:41:15;6.45;;;3.08;;
73337;SDS011;61575;49.908;35.556;2023-02-21T17:44:18;7.45;;;1.67;;
73337;SDS011;61575;49.908;35.556;2023-02-21T17:47:21;5.43;;;1.33;;
73337;SDS011;61575;49.908;35.556;2023-02-21T17:50:23;4.63;;;1.50;;
73337;SDS011;61575;49.908;35.556;2023-02-21T17:53:26;2.97;;;1.30;;
73337;SDS011;61575;49.908;35.556;2023-02-21T17:56:28;4.53;;;1.23;;
73337;SDS011;61575;49.908;35.556;2023-02-21T17:59:30;3.30;;;1.13;;
73337;SDS011;61575;49.908;35.556;2023-02-21T18:02:32;2.67;;;1.10;;
73337;SDS011;61575;49.908;35.556;2023-02-21T18:05:34;4.40;;;1.40;;
73337;SDS011;61575;49.908;35.556;2023-02-21T18:08:38;5.70;;;1.52;;
73337;SDS011;61575;49.908;35.556;2023-02-21T18:11:40;4.57;;;1.20;;
73337;SDS011;61575;49.908;35.556;2023-02-21T18:14:48;3.33;;;1.30;;
73337;SDS011;61575;49.908;35.556;2023-02-21T18:17:50;4.75;;;1.70;;
73337;SDS011;61575;49.908;35.556;2023-02-21T18:20:52;6.03;;;1.50;;
73337;SDS011;61575;49.908;35.556;2023-02-21T18:23:54;3.97;;;1.40;;
73337;SDS011;61575;49.908;35.556;2023-02-21T18:26:57;4.10;;;1.70;;
73337;SDS011;61575;49.908;35.556;2023-02-21T18:29:59;3.63;;;1.35;;
73337;SDS011;61575;49.908;35.556;2023-02-21T18:33:01;3.85;;;1.77;;
73337;SDS011;61575;49.908;35.556;2023-02-21T18:36:05;4.90;;;1.50;;
73337;SDS011;61575;49.908;35.556;2023-02-21T18:39:09;4.70;;;1.90;;
73337;SDS011;61575;49.908;35.556;2023-02-21T18:42:11;4.65;;;1.70;;
73337;SDS011;61575;49.908;35.556;2023-02-21T18:45:13;4.45;;;2.08;;
73337;SDS011;61575;49.908;35.556;2023-02-21T18:48:15;4.55;;;1.75;;
73337;SDS011;61575;49.908;35.556;2023-02-21T18:51:18;4.60;;;1.67;;
73337;SDS011;61575;49.908;35.556;2023-02-21T18:54:20;3.95;;;1.70;;
73337;SDS011;61575;49.908;35.556;2023-02-21T18:57:22;3.90;;;1.40;;
73337;SDS011;61575;49.908;35.556;2023-02-21T19:00:25;5.10;;;1.60;;
73337;SDS011;61575;49.908;35.556;2023-02-21T19:03:28;5.03;;;1.58;;
73337;SDS011;61575;49.908;35.556;2023-02-21T19:06:30;4.18;;;1.60;;
73337;SDS011;61575;49.908;35.556;2023-02-21T19:09:32;4.97;;;1.85;;
73337;SDS011;61575;49.908;35.556;2023-02-21T19:12:36;5.43;;;1.80;;
73337;SDS011;61575;49.908;35.556;2023-02-21T19:15:37;3.75;;;1.60;;
73337;SDS011;61575;49.908;35.556;2023-02-21T19:18:39;3.55;;;1.63;;
73337;SDS011;61575;49.908;35.556;2023-02-21T19:21:41;3.78;;;1.60;;
73337;SDS011;61575;49.908;35.556;2023-02-21T19:24:45;3.83;;;1.45;;
73337;SDS011;61575;49.908;35.556;2023-02-21T19:27:47;3.47;;;1.75;;
73337;SDS011;61575;49.908;35.556;2023-02-21T19:30:49;5.47;;;1.60;;
73337;SDS011;61575;49.908;35.556;2023-02-21T19:33:51;3.00;;;1.30;;
73337;SDS011;61575;49.908;35.556;2023-02-21T19:36:53;3.15;;;1.50;;
73337;SDS011;61575;49.908;35.556;2023-02-21T19:39:57;4.47;;;1.67;;
73337;SDS011;61575;49.908;35.556;2023-02-21T19:42:59;3.17;;;1.38;;
73337;SDS011;61575;49.908;35.556;2023-02-21T19:46:01;4.97;;;1.77;;
73337;SDS011;61575;49.908;35.556;2023-02-21T19:49:04;4.07;;;1.40;;
73337;SDS011;61575;49.908;35.556;2023-02-21T19:52:07;3.63;;;1.48;;
73337;SDS011;61575;49.908;35.556;2023-02-21T19:55:09;3.75;;;1.70;;
73337;SDS011;61575;49.908;35.556;2023-02-21T19:58:12;4.35;;;1.85;;
73337;SDS011;61575;49.908;35.556;2023-02-21T20:01:14;4.23;;;1.47;;
73337;SDS011;61575;49.908;35.556;2023-02-21T20:04:16;7.75;;;4.40;;
73337;SDS011;61575;49.908;35.556;2023-02-21T20:07:19;5.78;;;3.20;;
73337;SDS011;61575;49.908;35.556;2023-02-21T20:10:21;5.70;;;3.13;;
73337;SDS011;61575;49.908;35.556;2023-02-21T20:13:26;5.53;;;3.13;;
73337;SDS011;61575;49.908;35.556;2023-02-21T20:16:27;6.38;;;2.90;;
73337;SDS011;61575;49.908;35.556;2023-02-21T20:19:30;6.10;;;2.90;;
73337;SDS011;61575;49.908;35.556;2023-02-21T20:22:32;4.60;;;2.17;;
73337;SDS011;61575;49.908;35.556;2023-02-21T20:25:40;3.90;;;2.00;;
73337;SDS011;61575;49.908;35.556;2023-02-21T20:28:42;3.42;;;2.08;;
73337;SDS011;61575;49.908;35.556;2023-02-21T20:31:44;4.82;;;2.33;;
73337;SDS011;61575;49.908;35.556;2023-02-21T20:34:46;4.07;;;2.10;;
73337;SDS011;61575;49.908;35.556;2023-02-21T20:37:48;4.57;;;2.45;;
73337;SDS011;61575;49.908;35.556;2023-02-21T20:40:51;5.72;;;2.92;;
73337;SDS011;61575;49.908;35.556;2023-02-21T20:43:53;6.20;;;3.03;;
73337;SDS011;61575;49.908;35.556;2023-02-21T20:46:56;5.68;;;3.40;;
73337;SDS011;61575;49.908;35.556;2023-02-21T20:49:58;7.18;;;3.70;;
73337;SDS011;61575;49.908;35.556;2023-02-21T20:53:00;7.17;;;4.10;;
73337;SDS011;61575;49.908;35.556;2023-02-21T20:56:02;9.40;;;4.97;;
73337;SDS011;61575;49.908;35.556;2023-02-21T20:59:06;9.32;;;5.80;;
73337;SDS011;61575;49.908;35.556;2023-02-21T21:02:16;9.52;;;5.65;;
73337;SDS011;61575;49.908;35.556;2023-02-21T21:05:19;14.45;;;7.57;;
73337;SDS011;61575;49.908;35.556;2023-02-21T21:08:21;16.07;;;7.93;;
73337;SDS011;61575;49.908;35.556;2023-02-21T21:11:24;17.42;;;9.27;;
73337;SDS011;61575;49.908;35.556;2023-02-21T21:14:30;16.15;;;9.80;;
73337;SDS011;61575;49.908;35.556;2023-02-21T21:17:37;16.40;;;8.82;;
73337;SDS011;61575;49.908;35.556;2023-02-21T21:20:39;16.80;;;9.60;;
73337;SDS011;61575;49.908;35.556;2023-02-21T21:23:41;17.30;;;9.67;;
73337;SDS011;61575;49.908;35.556;2023-02-21T21:26:44;17.50;;;9.23;;
73337;SDS011;61575;49.908;35.556;2023-02-21T21:29:51;18.40;;;10.00;;
73337;SDS011;61575;49.908;35.556;2023-02-21T21:32:54;17.27;;;9.85;;
73337;SDS011;61575;49.908;35.556;2023-02-21T21:35:56;18.83;;;9.93;;